Time;durP1;ratioP1;P1;durP2;ratioP2;P2;SDS_P1;SDS_P2;PMS_P1;PMS_P2;Temp;Humidity;BMP_temperature;BMP_pressure;BME280_temperature;BME280_humidity;BME280_pressure;Samples;Min_cycle;Max_cycle;Signal;HPM_P1;HPM_P2
2023/10/17 00:01:52;;;;;;;10.93;5.60;;;4.60;99.90;;;;;;4973421;28;20054;-63
2023/10/17 00:07:02;;;;;;;13.20;3.92;;;4.60;99.90;;;;;;4983889;28;20042;-62
2023/10/17 00:09:36;;;;;;;7.90;3.97;;;4.50;99.90;;;;;;4970265;28;20070;-61
2023/10/17 00:14:45;;;;;;;11.68;4.00;;;4.50;99.90;;;;;;4973862;28;20047;-62
2023/10/17 00:17:16;;;;;;;6.30;2.88;;;4.50;99.90;;;;;;4983693;28;20509;-63
2023/10/17 00:19:45;;;;;;;8.70;3.65;;;4.50;99.90;;;;;;4983799;28;20117;-65
2023/10/17 00:22:25;;;;;;;7.28;3.30;;;4.40;99.90;;;;;;4978805;28;20046;-65
2023/10/17 00:25:09;;;;;;;7.10;3.30;;;4.40;99.90;;;;;;4984108;28;20050;-62
2023/10/17 00:27:38;;;;;;;9.73;3.47;;;4.40;99.90;;;;;;4968671;28;20047;-62
2023/10/17 00:30:07;;;;;;;7.63;3.33;;;4.40;99.90;;;;;;4986698;28;20042;-60
2023/10/17 00:32:41;;;;;;;9.07;3.33;;;4.40;99.90;;;;;;4981359;28;20047;-64
2023/10/17 00:35:19;;;;;;;11.30;3.53;;;4.40;99.90;;;;;;4975963;28;20058;-64
2023/10/17 00:37:53;;;;;;;12.65;3.47;;;4.40;99.90;;;;;;4981340;28;20077;-64
2023/10/17 00:43:14;;;;;;;8.90;3.63;;;4.40;99.90;;;;;;4987813;28;20051;-63
2023/10/17 00:45:47;;;;;;;8.07;3.65;;;4.40;99.90;;;;;;4982487;28;20062;-63
2023/10/17 00:48:27;;;;;;;5.07;3.15;;;4.40;99.90;;;;;;4972750;28;20049;-66
2023/10/17 00:51:08;;;;;;;12.23;4.00;;;4.40;99.90;;;;;;4970079;28;20051;-65
2023/10/17 00:53:39;;;;;;;10.05;3.78;;;4.40;99.90;;;;;;4981785;28;20054;-64
2023/10/17 00:56:08;;;;;;;15.98;4.88;;;4.40;99.90;;;;;;4979836;28;20062;-59
2023/10/17 00:58:37;;;;;;;8.27;4.38;;;4.40;99.90;;;;;;4970071;28;20042;-66
2023/10/17 01:01:27;;;;;;;8.95;4.63;;;4.40;99.90;;;;;;4972977;28;20487;-62
2023/10/17 01:03:58;;;;;;;10.02;4.68;;;4.50;99.90;;;;;;4978835;28;20038;-66
2023/10/17 01:08:58;;;;;;;8.45;3.70;;;4.50;99.90;;;;;;4977550;28;20050;-66
2023/10/17 01:11:29;;;;;;;7.97;4.05;;;4.50;99.90;;;;;;4976168;28;20054;-65
2023/10/17 01:13:57;;;;;;;12.40;4.07;;;4.50;99.90;;;;;;4981849;28;20035;-64
2023/10/17 01:16:25;;;;;;;8.90;4.15;;;4.50;99.90;;;;;;4988641;28;20058;-62
2023/10/17 01:19:00;;;;;;;12.32;4.55;;;4.50;99.90;;;;;;4986550;28;20681;-65
2023/10/17 01:21:28;;;;;;;10.20;4.03;;;4.50;99.90;;;;;;4986237;28;20055;-65
2023/10/17 01:24:03;;;;;;;10.15;3.90;;;4.50;99.90;;;;;;4989407;28;20038;-64
2023/10/17 01:26:31;;;;;;;9.95;4.38;;;4.50;99.90;;;;;;4977402;28;20046;-65
2023/10/17 01:29:01;;;;;;;8.43;4.18;;;4.50;99.90;;;;;;4972410;28;20042;-65
2023/10/17 01:31:38;;;;;;;13.43;4.30;;;4.40;99.90;;;;;;4978255;28;20081;-64
2023/10/17 01:34:12;;;;;;;9.05;3.70;;;4.40;99.90;;;;;;4988050;28;20096;-63
2023/10/17 01:36:42;;;;;;;10.40;4.10;;;4.40;99.90;;;;;;4979473;28;20042;-64
2023/10/17 01:39:13;;;;;;;15.88;4.45;;;4.40;99.90;;;;;;4984169;28;20046;-65
2023/10/17 01:41:43;;;;;;;13.73;4.20;;;4.40;99.90;;;;;;4974970;28;20046;-65
2023/10/17 01:44:14;;;;;;;8.02;4.13;;;4.40;99.90;;;;;;4975692;28;20042;-62
2023/10/17 01:46:43;;;;;;;8.77;4.28;;;4.40;99.90;;;;;;4980983;28;20042;-64
2023/10/17 01:49:12;;;;;;;;;;;4.40;99.90;;;;;;4978621;28;20059;-63
2023/10/17 01:51:48;;;;;;;7.97;3.80;;;4.40;99.90;;;;;;4983110;28;19930;-58
2023/10/17 01:54:17;;;;;;;14.80;4.18;;;4.40;99.90;;;;;;4980746;28;20047;-59
2023/10/17 01:56:48;;;;;;;7.60;3.60;;;4.40;99.90;;;;;;4985377;28;20047;-63
2023/10/17 01:59:25;;;;;;;13.23;3.65;;;4.40;99.90;;;;;;4973494;28;20406;-63
2023/10/17 02:01:56;;;;;;;11.68;3.33;;;4.40;99.90;;;;;;4984884;28;20054;-63
2023/10/17 02:04:25;;;;;;;9.13;3.88;;;4.40;99.90;;;;;;4987549;28;20047;-62
2023/10/17 02:06:54;;;;;;;10.50;2.97;;;4.50;99.90;;;;;;4982157;28;20046;-63
2023/10/17 02:11:54;;;;;;;10.38;3.55;;;4.50;99.90;;;;;;4980832;28;20053;-61
2023/10/17 02:14:27;;;;;;;18.38;4.03;;;4.50;99.90;;;;;;4984617;28;20054;-63
2023/10/17 02:16:59;;;;;;;10.63;3.58;;;4.50;99.90;;;;;;4980932;28;20050;-63
2023/10/17 02:19:31;;;;;;;11.93;3.42;;;4.60;99.90;;;;;;4984260;28;20054;-60
2023/10/17 02:22:00;;;;;;;7.82;3.08;;;4.60;99.90;;;;;;4983136;28;20085;-59
2023/10/17 02:24:29;;;;;;;14.87;3.80;;;4.60;99.90;;;;;;4981147;28;20043;-60
2023/10/17 02:27:08;;;;;;;13.98;3.75;;;4.70;99.90;;;;;;4972075;28;20497;-63
2023/10/17 02:29:41;;;;;;;10.52;4.28;;;4.90;99.90;;;;;;4976748;28;20046;-59
2023/10/17 02:32:12;;;;;;;9.18;3.70;;;5.10;99.90;;;;;;4974721;28;20150;-59
2023/10/17 02:34:43;;;;;;;15.85;3.78;;;5.20;99.90;;;;;;4975620;28;20046;-59
2023/10/17 02:37:16;;;;;;;9.77;3.60;;;5.30;99.90;;;;;;4979493;28;20495;-63
2023/10/17 02:39:44;;;;;;;13.68;3.78;;;5.50;99.90;;;;;;4987047;28;20043;-62
2023/10/17 02:42:11;;;;;;;7.55;3.42;;;5.60;99.90;;;;;;4977932;28;20061;-59
2023/10/17 02:44:43;;;;;;;10.30;3.28;;;5.70;99.90;;;;;;4990094;28;20061;-63
2023/10/17 02:47:12;;;;;;;9.65;3.35;;;5.80;99.90;;;;;;4990483;28;20414;-63
2023/10/17 02:49:43;;;;;;;7.65;2.97;;;6.00;99.90;;;;;;4981577;28;20074;-61
2023/10/17 02:52:11;;;;;;;9.10;2.92;;;6.10;99.90;;;;;;4972721;28;20073;-60
2023/10/17 02:54:55;;;;;;;10.48;2.90;;;6.30;99.90;;;;;;4987680;28;20045;-61
2023/10/17 02:57:23;;;;;;;10.10;2.90;;;6.40;99.90;;;;;;4984090;28;20051;-62
2023/10/17 02:59:51;;;;;;;5.30;2.70;;;6.60;99.90;;;;;;4984957;28;20034;-60
2023/10/17 03:02:26;;;;;;;7.70;2.28;;;6.70;99.90;;;;;;4983630;28;20046;-62
2023/10/17 03:05:02;;;;;;;13.63;3.05;;;6.80;99.90;;;;;;4986619;28;20053;-62
2023/10/17 03:07:30;;;;;;;7.22;2.30;;;6.90;99.90;;;;;;4980711;28;20039;-62
2023/10/17 03:09:58;;;;;;;7.13;3.53;;;7.00;99.90;;;;;;4984965;28;20054;-62
2023/10/17 03:12:29;;;;;;;6.47;2.33;;;7.00;99.90;;;;;;4978698;28;20039;-60
2023/10/17 03:17:25;;;;;;;6.72;3.10;;;7.20;99.90;;;;;;4984224;28;20042;-59
2023/10/17 03:19:52;;;;;;;8.07;3.17;;;7.20;99.90;;;;;;4985385;28;20046;-60
2023/10/17 03:22:24;;;;;;;9.30;2.90;;;7.30;99.90;;;;;;4974625;28;20063;-59
2023/10/17 03:25:01;;;;;;;7.80;3.05;;;7.40;99.90;;;;;;4977129;28;20050;-60
2023/10/17 03:27:37;;;;;;;7.78;3.22;;;7.40;99.90;;;;;;4989923;28;20042;-60
2023/10/17 03:30:10;;;;;;;7.32;3.50;;;7.90;99.90;;;;;;4975781;28;20050;-59
2023/10/17 03:32:53;;;;;;;12.02;3.42;;;7.50;99.90;;;;;;4991850;28;20058;-59
2023/10/17 03:35:25;;;;;;;10.20;3.55;;;7.60;99.90;;;;;;4985544;28;20054;-61
2023/10/17 03:37:55;;;;;;;5.95;3.70;;;7.70;99.90;;;;;;4974990;28;20057;-59
2023/10/17 03:43:08;;;;;;;12.45;4.20;;;7.80;99.90;;;;;;4974941;28;20050;-58
2023/10/17 03:45:43;;;;;;;15.70;5.10;;;7.80;99.90;;;;;;4972689;28;20055;-59
2023/10/17 03:48:15;;;;;;;7.32;4.43;;;7.80;99.90;;;;;;4990899;28;20400;-59
2023/10/17 03:50:57;;;;;;;11.07;4.80;;;7.90;99.90;;;;;;4975761;28;20047;-59
2023/10/17 03:53:28;;;;;;;18.85;5.20;;;8.00;99.90;;;;;;4979074;28;20527;-59
2023/10/17 03:56:00;;;;;;;7.80;4.68;;;8.00;99.90;;;;;;4974822;28;20042;-62
2023/10/17 03:58:43;;;;;;;11.57;4.80;;;8.00;99.90;;;;;;4972431;28;20046;-63
2023/10/17 04:01:12;;;;;;;11.05;5.10;;;8.10;99.90;;;;;;4970985;28;20050;-64
2023/10/17 04:03:42;;;;;;;8.10;5.00;;;8.10;99.90;;;;;;4987653;28;20499;-61
2023/10/17 04:08:48;;;;;;;12.27;5.50;;;8.10;99.90;;;;;;4971145;28;20050;-61
2023/10/17 04:13:49;;;;;;;13.25;5.43;;;8.10;99.90;;;;;;4985760;28;20058;-63
2023/10/17 04:16:22;;;;;;;11.23;5.30;;;8.10;99.90;;;;;;4973371;28;20050;-63
2023/10/17 04:21:51;;;;;;;9.45;5.70;;;8.10;99.90;;;;;;4978730;28;20046;-63
2023/10/17 04:24:35;;;;;;;13.75;6.45;;;8.10;99.90;;;;;;4985927;28;20035;-64
2023/10/17 04:27:19;;;;;;;13.77;5.93;;;8.10;99.90;;;;;;4983914;28;20042;-61
2023/10/17 04:29:50;;;;;;;11.80;6.18;;;8.10;99.90;;;;;;4991696;28;20379;-64
2023/10/17 04:32:19;;;;;;;11.52;6.05;;;8.10;99.90;;;;;;4991991;28;20043;-62
2023/10/17 04:34:48;;;;;;;11.85;6.80;;;8.10;99.90;;;;;;4991743;28;20049;-63
2023/10/17 04:37:17;;;;;;;12.45;6.53;;;8.10;99.90;;;;;;4983011;28;20047;-59
2023/10/17 04:39:57;;;;;;;14.85;7.00;;;8.10;99.90;;;;;;4984699;28;20038;-63
2023/10/17 04:42:47;;;;;;;13.15;6.95;;;8.20;99.90;;;;;;4994314;28;20596;-60
2023/10/17 04:45:19;;;;;;;14.18;7.28;;;8.20;99.90;;;;;;4989986;28;20054;-60
2023/10/17 04:47:48;;;;;;;17.15;7.82;;;8.30;99.90;;;;;;4985678;28;20062;-62
2023/10/17 04:50:16;;;;;;;13.57;7.00;;;8.30;99.90;;;;;;4976544;28;20056;-60
2023/10/17 04:52:47;;;;;;;12.50;7.28;;;8.40;99.90;;;;;;4973004;28;20058;-60
2023/10/17 05:03:27;;;;;;;13.57;7.13;;;8.60;99.90;;;;;;4975619;28;20396;-60
2023/10/17 06:16:49;;;;;;;14.20;6.07;;;8.60;99.90;;;;;;4979815;28;20058;-60
2023/10/17 06:19:20;;;;;;;10.40;5.03;;;8.20;99.90;;;;;;4976377;28;20070;-61
2023/10/17 06:26:59;;;;;;;15.80;5.20;;;8.10;99.90;;;;;;4981667;28;19929;-63
2023/10/17 06:34:47;;;;;;;10.88;4.47;;;8.10;99.90;;;;;;4974759;28;20479;-62
2023/10/17 06:37:28;;;;;;;10.07;5.55;;;8.10;99.90;;;;;;4972062;28;20055;-61
2023/10/17 06:39:59;;;;;;;12.15;4.68;;;8.10;99.90;;;;;;4985988;28;20212;-63
2023/10/17 06:42:38;;;;;;;10.15;4.65;;;8.00;99.90;;;;;;4988295;28;20042;-64
2023/10/17 06:45:09;;;;;;;9.65;4.70;;;8.00;99.90;;;;;;4983151;28;20054;-62
2023/10/17 06:47:47;;;;;;;15.90;5.07;;;8.00;99.90;;;;;;4974429;28;20050;-65
2023/10/17 06:55:42;;;;;;;10.02;4.35;;;8.00;99.90;;;;;;4988864;28;20058;-63
2023/10/17 06:58:11;;;;;;;12.50;5.35;;;8.00;99.90;;;;;;4978950;28;20379;-63
2023/10/17 07:00:53;;;;;;;12.68;5.22;;;8.00;99.90;;;;;;4987463;28;20066;-59
2023/10/17 07:03:28;;;;;;;9.10;4.47;;;8.00;99.90;;;;;;4985456;28;20494;-61
2023/10/17 07:06:16;;;;;;;9.07;4.65;;;8.00;99.90;;;;;;4967403;28;20071;-63
2023/10/17 07:08:50;;;;;;;9.55;4.30;;;8.00;99.90;;;;;;4983507;28;20038;-62
2023/10/17 07:13:54;;;;;;;14.85;5.13;;;8.00;99.90;;;;;;4982553;28;20076;-62
2023/10/17 07:16:27;;;;;;;11.88;5.00;;;8.10;99.90;;;;;;4970412;28;20062;-59
2023/10/17 07:18:57;;;;;;;9.43;4.20;;;8.10;99.90;;;;;;4963259;28;20051;-63
2023/10/17 07:21:25;;;;;;;6.97;4.50;;;8.10;99.90;;;;;;4973148;28;20034;-64
2023/10/17 07:23:54;;;;;;;20.90;4.43;;;8.10;99.90;;;;;;4978691;28;20054;-63
2023/10/17 07:28:52;;;;;;;13.52;4.28;;;8.10;99.90;;;;;;4984587;28;20054;-58
2023/10/17 07:31:22;;;;;;;8.73;4.25;;;8.20;99.90;;;;;;4974855;28;20046;-60
2023/10/17 07:34:34;;;;;;;14.48;5.63;;;8.30;99.90;;;;;;4988065;28;20050;-58
2023/10/17 07:36:44;;;;;;;14.38;4.20;;;8.30;99.90;;;;;;4986377;28;20058;-59
2023/10/17 07:39:24;;;;;;;17.90;5.40;;;8.40;99.90;;;;;;4968572;28;20540;-57
2023/10/17 07:41:53;;;;;;;15.75;4.35;;;8.40;99.90;;;;;;4970351;28;20062;-58
2023/10/17 07:44:25;;;;;;;9.05;3.65;;;8.50;99.90;;;;;;4989408;28;20786;-62
2023/10/17 07:49:41;;;;;;;12.20;4.32;;;8.50;99.90;;;;;;4986804;28;20042;-63
2023/10/17 07:52:17;;;;;;;7.50;3.60;;;8.50;99.90;;;;;;4987043;28;20054;-61
2023/10/17 07:57:36;;;;;;;11.57;4.43;;;8.60;99.90;;;;;;4972147;28;20391;-60
2023/10/17 08:02:55;;;;;;;10.68;4.00;;;8.70;99.90;;;;;;4979994;28;20505;-63
2023/10/17 08:05:23;;;;;;;5.90;3.65;;;8.70;99.90;;;;;;4969614;28;20050;-58
2023/10/17 08:08:01;;;;;;;6.80;3.38;;;8.80;99.90;;;;;;4977143;28;20050;-62
2023/10/17 08:10:35;;;;;;;10.93;3.40;;;8.80;99.90;;;;;;4985369;28;20054;-63
2023/10/17 08:13:03;;;;;;;10.95;3.03;;;9.00;99.90;;;;;;4974680;28;20046;-61
2023/10/17 08:15:43;;;;;;;7.47;3.28;;;9.00;99.90;;;;;;4957836;28;20057;-62
2023/10/17 08:18:14;;;;;;;;;;;9.10;99.90;;;;;;4983952;28;20054;-61
2023/10/17 08:23:30;;;;;;;17.17;3.28;;;9.20;99.90;;;;;;4980648;28;20045;-62
2023/10/17 08:26:00;;;;;;;10.10;2.70;;;9.20;99.90;;;;;;4980035;28;20054;-63
2023/10/17 08:28:46;;;;;;;6.30;2.22;;;9.30;99.90;;;;;;4971888;28;20054;-65
2023/10/17 08:31:22;;;;;;;6.25;2.35;;;9.30;99.90;;;;;;4975662;28;20047;-64
2023/10/17 08:36:43;;;;;;;10.65;3.00;;;9.50;99.90;;;;;;4967191;28;20054;-63
2023/10/17 08:42:05;;;;;;;4.38;2.05;;;9.60;99.90;;;;;;4981619;28;20054;-62
2023/10/17 08:44:35;;;;;;;7.53;2.53;;;9.60;99.90;;;;;;4984673;28;20046;-62
2023/10/17 08:47:03;;;;;;;8.98;2.60;;;9.70;99.90;;;;;;4978024;28;20051;-59
2023/10/17 08:49:33;;;;;;;7.72;2.40;;;9.80;99.90;;;;;;4982976;28;20054;-62
2023/10/17 08:52:03;;;;;;;7.95;2.00;;;9.90;99.90;;;;;;4969794;28;20046;-62
2023/10/17 08:54:32;;;;;;;;;;;9.90;99.90;;;;;;4970342;28;20526;-62
2023/10/17 08:57:02;;;;;;;5.87;1.80;;;10.00;99.90;;;;;;4968058;28;19929;-63
2023/10/17 09:02:14;;;;;;;12.32;2.33;;;10.10;99.90;;;;;;4985912;28;20054;-63
2023/10/17 09:04:43;;;;;;;6.27;2.67;;;10.20;99.90;;;;;;4985352;28;20042;-63
2023/10/17 09:07:22;;;;;;;8.77;2.20;;;10.20;99.90;;;;;;4988372;28;20050;-62
2023/10/17 09:09:54;;;;;;;9.35;2.13;;;10.30;99.90;;;;;;4985838;28;20388;-63
2023/10/17 09:12:25;;;;;;;7.13;2.13;;;10.40;99.90;;;;;;4988316;28;20042;-63
2023/10/17 09:14:56;;;;;;;9.43;2.38;;;10.50;99.90;;;;;;4982349;28;20047;-63
2023/10/17 09:19:52;;;;;;;7.95;1.77;;;10.60;99.90;;;;;;4970645;28;20050;-61
2023/10/17 09:22:23;;;;;;;3.88;1.20;;;10.70;99.90;;;;;;4972334;28;20065;-62
2023/10/17 09:24:51;;;;;;;5.88;1.38;;;10.80;99.90;;;;;;4984906;28;20054;-63
2023/10/17 09:27:22;;;;;;;4.78;2.00;;;10.80;99.90;;;;;;4973893;28;20062;-64
2023/10/17 09:29:59;;;;;;;5.45;1.50;;;10.90;99.90;;;;;;4977134;28;20051;-63
2023/10/17 09:32:34;;;;;;;7.35;1.77;;;11.00;99.90;;;;;;4977816;28;20055;-62
2023/10/17 09:35:11;;;;;;;3.35;1.60;;;11.00;99.90;;;;;;4982732;28;20046;-63
2023/10/17 09:37:41;;;;;;;11.80;2.00;;;11.00;99.90;;;;;;4985313;28;20047;-62
2023/10/17 09:40:13;;;;;;;;;;;11.10;99.90;;;;;;4987499;28;20055;-60
2023/10/17 09:42:46;;;;;;;3.95;1.55;;;11.10;99.90;;;;;;4977062;28;19933;-64
2023/10/17 09:45:15;;;;;;;13.52;1.63;;;11.20;99.90;;;;;;4980047;28;20220;-63
2023/10/17 09:48:04;;;;;;;2.88;1.30;;;11.20;99.90;;;;;;4979606;28;20061;-59
2023/10/17 09:50:35;;;;;;;8.98;1.58;;;11.30;99.90;;;;;;4983832;28;20051;-63
2023/10/17 09:53:18;;;;;;;6.68;1.17;;;11.40;99.90;;;;;;4988644;28;20050;-60
2023/10/17 09:55:55;;;;;;;8.00;1.33;;;11.40;99.90;;;;;;4984630;28;20054;-60
2023/10/17 09:58:30;;;;;;;8.32;1.50;;;11.50;99.90;;;;;;4981032;28;20050;-58
2023/10/17 10:01:05;;;;;;;7.10;1.75;;;11.60;99.90;;;;;;4971922;28;20387;-58
2023/10/17 10:03:36;;;;;;;5.93;1.15;;;11.60;99.90;;;;;;4980902;28;20051;-59
2023/10/17 10:06:30;;;;;;;4.15;1.50;;;11.70;99.90;;;;;;4974942;28;20047;-59
2023/10/17 10:09:01;;;;;;;7.75;1.33;;;11.70;99.90;;;;;;4976815;28;20051;-59
2023/10/17 10:11:47;;;;;;;6.18;1.63;;;11.80;99.90;;;;;;4971171;28;20055;-60
2023/10/17 10:14:35;;;;;;;7.20;1.42;;;11.90;99.90;;;;;;4984948;28;20069;-59
2023/10/17 10:17:03;;;;;;;6.15;1.38;;;11.90;99.90;;;;;;4990946;28;20488;-59
2023/10/17 10:19:40;;;;;;;4.25;1.38;;;12.00;99.90;;;;;;4989537;28;20053;-60
2023/10/17 10:22:13;;;;;;;4.53;1.67;;;12.10;99.90;;;;;;4977192;28;20051;-59
2023/10/17 10:24:45;;;;;;;6.75;1.50;;;12.10;99.90;;;;;;4989848;28;20685;-62
2023/10/17 10:27:23;;;;;;;13.15;2.50;;;12.20;99.90;;;;;;4983984;28;20091;-60
2023/10/17 10:30:18;;;;;;;9.77;1.70;;;12.30;99.90;;;;;;4971507;28;20651;-59
2023/10/17 10:32:46;;;;;;;4.30;1.33;;;12.40;99.90;;;;;;4985389;28;20046;-59
2023/10/17 10:35:15;;;;;;;10.73;1.45;;;12.40;99.90;;;;;;4969718;28;20062;-62
2023/10/17 10:37:52;;;;;;;5.13;1.73;;;12.40;99.90;;;;;;4973017;28;20085;-60
2023/10/17 10:40:26;;;;;;;9.93;1.52;;;12.50;99.90;;;;;;4989577;28;20038;-63
2023/10/17 10:42:59;;;;;;;5.30;1.20;;;12.60;99.90;;;;;;4986625;28;20050;-62
2023/10/17 10:45:35;;;;;;;6.70;1.73;;;12.60;99.90;;;;;;4978883;28;20050;-64
2023/10/17 10:48:14;;;;;;;6.15;1.88;;;12.80;99.90;;;;;;4976666;28;20050;-63
2023/10/17 10:50:44;;;;;;;13.10;1.77;;;12.80;99.90;;;;;;4988936;28;20042;-60
2023/10/17 10:53:28;;;;;;;4.80;1.17;;;12.90;99.90;;;;;;5004282;28;20080;-63
2023/10/17 10:56:15;;;;;;;2.72;1.10;;;12.90;99.90;;;;;;4974899;28;20050;-62
2023/10/17 10:58:51;;;;;;;8.50;1.55;;;13.00;99.90;;;;;;4981935;28;20049;-62
2023/10/17 11:01:20;;;;;;;6.47;1.23;;;13.00;99.90;;;;;;4986871;28;20050;-62
2023/10/17 11:03:49;;;;;;;4.38;0.90;;;13.20;99.90;;;;;;4973363;28;20054;-63
2023/10/17 11:06:23;;;;;;;6.55;1.10;;;13.20;99.90;;;;;;4977355;28;20093;-62
2023/10/17 11:08:54;;;;;;;5.90;1.40;;;13.30;99.90;;;;;;4983813;28;20046;-62
2023/10/17 11:11:23;;;;;;;8.43;1.27;;;13.40;99.90;;;;;;4970628;28;20499;-62
2023/10/17 11:13:56;;;;;;;6.50;1.17;;;13.40;99.90;;;;;;4985687;28;20045;-63
2023/10/17 11:16:27;;;;;;;3.40;0.88;;;13.50;99.90;;;;;;4989797;28;20410;-62
2023/10/17 11:18:55;;;;;;;4.20;1.38;;;13.50;99.90;;;;;;4981678;28;20075;-63
2023/10/17 11:21:23;;;;;;;5.85;1.52;;;13.60;99.90;;;;;;4972716;28;20051;-63
2023/10/17 11:24:02;;;;;;;7.68;1.98;;;13.80;99.90;;;;;;4983632;28;20490;-63
2023/10/17 11:26:33;;;;;;;8.63;1.25;;;14.00;99.90;;;;;;4969824;28;20054;-63
2023/10/17 11:29:05;;;;;;;4.65;1.25;;;14.00;99.90;;;;;;4972266;28;20047;-63
2023/10/17 11:31:33;;;;;;;3.75;1.00;;;14.10;99.90;;;;;;4971169;28;20057;-63
2023/10/17 11:34:14;;;;;;;6.22;1.05;;;14.20;99.90;;;;;;4981299;28;20470;-61
2023/10/17 11:36:47;;;;;;;6.40;1.10;;;14.30;99.90;;;;;;4957424;28;20059;-62
2023/10/17 11:39:15;;;;;;;3.20;1.15;;;14.40;99.90;;;;;;4977232;28;20122;-63
2023/10/17 11:41:46;;;;;;;4.05;1.13;;;14.60;99.90;;;;;;4969929;28;20050;-61
2023/10/17 11:44:15;;;;;;;5.07;1.55;;;14.70;99.90;;;;;;4982435;28;20733;-64
2023/10/17 11:47:03;;;;;;;5.57;1.08;;;14.80;99.90;;;;;;4974949;28;20399;-63
2023/10/17 11:49:38;;;;;;;6.38;1.60;;;14.90;99.90;;;;;;4983891;28;20414;-62
2023/10/17 11:52:10;;;;;;;6.93;0.93;;;15.00;99.90;;;;;;4970678;28;20061;-63
2023/10/17 11:55:11;;;;;;;5.90;1.38;;;15.20;99.90;;;;;;4970234;28;20039;-64
2023/10/17 11:57:45;;;;;;;5.85;1.38;;;15.50;99.90;;;;;;4975584;28;20065;-63
2023/10/17 12:02:48;;;;;;;6.72;1.05;;;15.90;99.90;;;;;;4978776;28;20050;-64
2023/10/17 12:05:18;;;;;;;3.92;1.08;;;16.20;99.90;;;;;;4973611;28;20043;-63
2023/10/17 12:07:57;;;;;;;8.15;1.33;;;16.40;99.90;;;;;;4980622;28;20047;-62
2023/10/17 12:10:25;;;;;;;4.65;1.08;;;16.60;99.90;;;;;;4981782;28;20092;-63
2023/10/17 12:12:59;;;;;;;3.00;0.93;;;16.70;99.90;;;;;;4972335;28;20423;-58
2023/10/17 12:15:28;;;;;;;3.10;1.00;;;16.90;99.90;;;;;;4980647;28;20047;-59
2023/10/17 12:17:56;;;;;;;4.78;1.00;;;17.10;99.90;;;;;;4988377;28;20042;-64
2023/10/17 12:20:27;;;;;;;4.90;1.10;;;17.30;99.90;;;;;;4986433;28;20045;-59
2023/10/17 12:22:56;;;;;;;3.67;0.90;;;17.50;99.90;;;;;;4987052;28;20046;-58
2023/10/17 12:25:24;;;;;;;5.85;0.82;;;17.60;99.90;;;;;;4986874;28;20069;-62
2023/10/17 12:27:58;;;;;;;6.45;1.10;;;17.70;99.90;;;;;;4988117;28;20050;-59
2023/10/17 12:30:27;;;;;;;7.80;1.25;;;17.70;99.90;;;;;;4987957;28;20546;-60
2023/10/17 12:32:56;;;;;;;11.13;1.05;;;17.60;99.90;;;;;;4975940;28;20039;-59
2023/10/17 12:35:27;;;;;;;5.72;1.00;;;17.60;99.90;;;;;;4981437;28;20038;-59
2023/10/17 12:38:05;;;;;;;5.10;1.00;;;17.60;99.90;;;;;;4988222;28;20054;-60
2023/10/17 12:40:33;;;;;;;4.53;1.05;;;17.70;99.90;;;;;;4969510;28;20047;-59
2023/10/17 12:43:02;;;;;;;4.90;1.00;;;18.00;99.90;;;;;;4987640;28;20042;-62
2023/10/17 12:45:31;;;;;;;6.50;1.40;;;18.20;99.90;;;;;;4970074;28;20050;-64
2023/10/17 12:47:59;;;;;;;9.93;1.13;;;18.40;99.90;;;;;;4968414;28;20065;-65
2023/10/17 12:50:27;;;;;;;7.00;0.95;;;18.50;99.20;;;;;;4980570;28;20046;-65
2023/10/17 12:52:55;;;;;;;5.75;1.23;;;18.50;99.70;;;;;;4969528;28;20043;-63
2023/10/17 12:55:23;;;;;;;5.45;1.00;;;18.50;99.60;;;;;;4981823;28;20045;-62
2023/10/17 12:57:51;;;;;;;5.63;0.80;;;18.60;99.90;;;;;;4969158;28;20367;-64
2023/10/17 13:00:25;;;;;;;4.53;1.13;;;18.80;99.50;;;;;;4976960;28;20050;-61
2023/10/17 13:02:53;;;;;;;5.13;1.15;;;19.00;99.70;;;;;;4981339;28;20491;-66
2023/10/17 13:05:23;;;;;;;6.65;0.93;;;19.10;99.40;;;;;;4974078;28;20406;-61
2023/10/17 13:07:52;;;;;;;6.47;0.85;;;19.20;98.90;;;;;;4975085;28;20042;-61
2023/10/17 13:10:20;;;;;;;2.88;0.90;;;19.30;98.50;;;;;;4981124;28;20050;-66
2023/10/17 13:12:48;;;;;;;4.22;0.70;;;19.30;97.60;;;;;;4988042;28;20414;-65
2023/10/17 13:15:16;;;;;;;6.43;1.10;;;19.20;97.90;;;;;;4984638;28;20034;-65
2023/10/17 13:17:44;;;;;;;6.25;0.85;;;19.10;97.70;;;;;;4979396;28;20050;-65
2023/10/17 13:20:14;;;;;;;6.47;1.02;;;19.10;98.30;;;;;;4969621;28;20050;-65
2023/10/17 13:23:03;;;;;;;3.90;1.00;;;19.30;98.30;;;;;;4972195;28;20054;-65
2023/10/17 13:25:35;;;;;;;4.10;0.90;;;19.30;98.10;;;;;;4972490;28;20039;-65
2023/10/17 13:28:03;;;;;;;4.28;0.80;;;19.30;98.40;;;;;;4979430;28;20034;-64
2023/10/17 13:30:31;;;;;;;3.45;1.02;;;19.40;98.40;;;;;;4981753;28;20042;-64
2023/10/17 13:32:59;;;;;;;3.90;1.05;;;19.60;97.60;;;;;;4965784;28;20043;-66
2023/10/17 13:35:28;;;;;;;6.60;1.33;;;19.60;97.60;;;;;;4979689;28;20054;-66
2023/10/17 13:37:58;;;;;;;3.13;0.73;;;19.80;97.20;;;;;;4974671;28;20042;-63
2023/10/17 13:40:26;;;;;;;5.20;1.30;;;19.90;97.00;;;;;;4980746;28;20042;-65
2023/10/17 13:42:54;;;;;;;6.00;1.15;;;19.90;97.20;;;;;;4986960;28;20047;-66
2023/10/17 13:45:22;;;;;;;4.72;1.20;;;20.00;96.70;;;;;;4972395;28;20073;-61
2023/10/17 13:47:52;;;;;;;4.63;0.85;;;20.10;97.00;;;;;;4980692;28;20055;-62
2023/10/17 13:50:22;;;;;;;4.00;1.00;;;20.20;96.80;;;;;;4989492;28;20050;-63
2023/10/17 13:52:52;;;;;;;4.50;0.82;;;20.20;96.30;;;;;;4989369;28;20053;-62
2023/10/17 13:55:26;;;;;;;;;;;20.00;95.90;;;;;;4986814;28;20046;-67
2023/10/17 13:58:04;;;;;;;6.18;1.23;;;19.70;96.20;;;;;;4975125;28;19928;-65
2023/10/17 14:00:49;;;;;;;4.75;1.05;;;19.30;96.40;;;;;;4981976;28;20965;-60
2023/10/17 14:03:21;;;;;;;6.18;0.82;;;18.70;96.90;;;;;;4979644;28;20054;-63
2023/10/17 14:05:51;;;;;;;6.35;1.02;;;17.90;97.60;;;;;;4994620;28;20038;-63
2023/10/17 14:08:22;;;;;;;4.50;1.25;;;17.30;98.80;;;;;;4978068;28;20479;-63
2023/10/17 14:10:49;;;;;;;5.35;1.02;;;16.70;99.40;;;;;;4986575;28;20050;-64
2023/10/17 14:13:18;;;;;;;3.42;0.80;;;16.30;99.70;;;;;;4979168;28;20051;-62
2023/10/17 14:15:47;;;;;;;7.00;1.27;;;15.90;99.90;;;;;;4976477;28;20500;-63
2023/10/17 14:18:16;;;;;;;5.93;0.95;;;15.60;99.90;;;;;;4976413;28;20053;-60
2023/10/17 14:26:29;;;;;;;2.97;1.00;;;14.90;99.90;;;;;;4988343;28;20051;-63
2023/10/17 14:29:00;;;;;;;5.13;0.98;;;14.80;99.90;;;;;;4983324;28;20046;-64
2023/10/17 14:31:31;;;;;;;2.60;1.00;;;14.70;99.90;;;;;;4983407;28;20055;-64
2023/10/17 14:34:00;;;;;;;5.65;1.20;;;14.60;99.90;;;;;;4976001;28;20511;-59
2023/10/17 14:36:28;;;;;;;6.80;1.23;;;14.60;99.90;;;;;;4981950;28;20046;-64
2023/10/17 14:38:58;;;;;;;9.73;1.40;;;14.60;99.90;;;;;;4980866;28;20045;-63
2023/10/17 14:41:25;;;;;;;7.38;1.40;;;14.50;99.90;;;;;;4972802;28;20055;-66
2023/10/17 14:43:54;;;;;;;4.75;1.00;;;14.50;99.90;;;;;;4977189;28;20057;-63
2023/10/17 14:46:22;;;;;;;3.50;0.88;;;14.50;99.90;;;;;;4983622;28;20057;-63
2023/10/17 14:48:50;;;;;;;3.00;0.95;;;14.40;99.90;;;;;;4981568;28;20139;-60
2023/10/17 14:51:19;;;;;;;5.10;0.80;;;14.40;99.90;;;;;;4981391;28;20046;-60
2023/10/17 14:53:47;;;;;;;5.18;1.15;;;14.30;99.90;;;;;;4979047;28;20051;-61
2023/10/17 14:56:21;;;;;;;3.20;0.80;;;14.30;99.90;;;;;;4973592;28;20054;-59
2023/10/17 14:58:49;;;;;;;2.15;0.80;;;14.30;99.90;;;;;;4970887;28;20046;-58
2023/10/17 15:01:18;;;;;;;3.92;1.13;;;14.30;99.90;;;;;;4976526;28;20055;-58
2023/10/17 15:03:47;;;;;;;3.90;0.93;;;14.20;99.90;;;;;;4978556;28;20115;-63
2023/10/17 15:06:15;;;;;;;4.97;1.10;;;14.20;99.90;;;;;;4974862;28;20062;-61
2023/10/17 15:08:44;;;;;;;4.05;0.90;;;14.10;99.90;;;;;;4979787;28;20062;-62
2023/10/17 15:11:12;;;;;;;4.78;0.93;;;14.10;99.90;;;;;;4979069;28;20061;-61
2023/10/17 15:13:39;;;;;;;6.15;1.23;;;14.10;99.90;;;;;;4986826;28;20043;-61
2023/10/17 15:16:15;;;;;;;5.80;1.10;;;14.00;99.90;;;;;;4980464;28;20095;-63
2023/10/17 15:18:44;;;;;;;5.90;1.20;;;14.00;99.90;;;;;;4980019;28;20540;-62
2023/10/17 15:21:13;;;;;;;5.47;1.00;;;13.90;99.90;;;;;;4969224;28;20065;-64
2023/10/17 15:23:42;;;;;;;3.33;0.93;;;13.90;99.90;;;;;;4974143;28;20039;-63
2023/10/17 15:26:11;;;;;;;5.78;1.65;;;13.80;99.90;;;;;;4972682;28;20540;-63
2023/10/17 15:28:48;;;;;;;7.50;1.13;;;13.70;99.90;;;;;;4984658;28;20483;-63
2023/10/17 15:31:15;;;;;;;3.13;0.98;;;13.70;99.90;;;;;;4973500;28;20576;-61
2023/10/17 15:33:44;;;;;;;7.22;1.48;;;13.60;99.90;;;;;;4982087;28;20042;-63
2023/10/17 15:36:14;;;;;;;4.05;1.25;;;13.60;99.90;;;;;;4980287;28;20051;-59
2023/10/17 15:38:42;;;;;;;3.17;0.70;;;13.50;99.90;;;;;;4982903;28;20402;-61
2023/10/17 15:41:15;;;;;;;2.30;0.77;;;13.50;99.90;;;;;;4989463;28;20050;-60
2023/10/17 15:43:45;;;;;;;7.45;1.10;;;13.50;99.90;;;;;;4988167;28;20372;-62
2023/10/17 15:46:14;;;;;;;8.73;1.00;;;13.40;99.90;;;;;;4980182;28;20042;-62
2023/10/17 15:48:42;;;;;;;7.43;0.90;;;13.40;99.90;;;;;;4982427;28;20057;-63
2023/10/17 15:51:18;;;;;;;3.92;1.10;;;13.40;99.90;;;;;;4983591;28;20050;-61
2023/10/17 15:53:46;;;;;;;5.90;1.00;;;13.40;99.90;;;;;;4980221;28;20050;-60